Malvern, Iowa
Current Conditions -  °F | °C
As of 10:15 AM on Sunday 25 Jan 2015 (Local Time) from KRDK Reporting Station
Haze Haze  
Wind Chill: 24°   Ceiling: 800
Heat Index: 36°   Visibility: 6mi
Dew Point: 34°   Wind: 22mph
Humidity: 93%   Direction: 360°N
Pressure: 29.87"   Gusts: 30mph
Location:  41°N, 95.59°W
Report Text: KRDK 251615Z AUTO 36019G26KT 6SM BR OVC008 02/01 A2987 RMK AO2
Loading
Personal Weather Stations






























Interactive Weather Map New forecast layout! Learn more

10-Day Weather Forecast

Advertisements
Track Severe Weather on mobile